Time;durP1;ratioP1;P1;durP2;ratioP2;P2;SDS_P1;SDS_P2;PMS_P1;PMS_P2;Temp;Humidity;BMP_temperature;BMP_pressure;BME280_temperature;BME280_humidity;BME280_pressure;Samples;Min_cycle;Max_cycle;Signal;HPM_P1;HPM_P2
2024/03/30 00:00:45;;;;;;;;;1.50;1.50;;;;;10.86;77.22;99018.19;5041219;28;45264;-50
2024/03/30 00:03:10;;;;;;;;;2.00;2.00;;;;;10.84;76.69;99007.81;5039833;28;50070;-48
2024/03/30 00:05:35;;;;;;;;;2.00;2.00;;;;;10.82;76.90;99009.69;5047492;28;71981;-53
2024/03/30 00:08:01;;;;;;;;;2.50;1.50;;;;;10.80;76.65;99004.53;5040543;28;68147;-48
2024/03/30 00:10:26;;;;;;;;;2.00;2.00;;;;;10.78;76.59;98995.06;5065104;28;58071;-48
2024/03/30 00:12:54;;;;;;;;;16.50;12.50;;;;;10.75;76.89;98997.88;5047549;28;45333;-48
2024/03/30 00:15:19;;;;;;;;;56.75;42.75;;;;;10.72;77.21;98990.19;5061219;28;45492;-48
2024/03/30 00:17:45;;;;;;;;;2.00;0.00;;;;;10.70;76.89;98986.81;5061166;28;46173;-53
2024/03/30 00:20:10;;;;;;;;;3.00;2.00;;;;;10.68;77.30;98989.50;5061395;28;45341;-49
2024/03/30 00:22:35;;;;;;;;;2.00;2.00;;;;;10.69;77.74;98990.34;5060298;28;69507;-47
2024/03/30 00:25:01;;;;;;;;;1.00;1.00;;;;;10.71;77.36;98988.47;5049685;28;70392;-48
2024/03/30 00:27:26;;;;;;;;;2.75;1.50;;;;;10.71;77.51;98989.34;5039999;28;68216;-48
2024/03/30 00:29:51;;;;;;;;;2.75;1.25;;;;;10.71;77.38;98983.25;5042139;28;60448;-50
2024/03/30 00:32:17;;;;;;;;;1.75;0.50;;;;;10.69;77.31;98980.72;5053468;28;66215;-49
2024/03/30 00:34:42;;;;;;;;;2.25;2.00;;;;;10.70;77.43;98978.97;5051802;28;45343;-52
2024/03/30 00:37:07;;;;;;;;;3.00;1.00;;;;;10.68;77.67;98976.44;5041597;28;61871;-52
2024/03/30 00:39:33;;;;;;;;;2.75;2.00;;;;;10.68;77.68;98978.19;5040588;28;45277;-52
2024/03/30 00:41:58;;;;;;;;;2.00;2.00;;;;;10.66;77.59;98969.56;5053058;28;65502;-50
2024/03/30 00:44:23;;;;;;;;;2.00;1.00;;;;;10.67;77.80;98969.50;5049709;28;45192;-52
2024/03/30 00:46:48;;;;;;;;;2.50;1.00;;;;;10.69;78.14;98969.41;5058635;28;75697;-52
2024/03/30 00:49:14;;;;;;;;;49.75;37.50;;;;;10.70;77.81;98969.31;5075584;28;69790;-46
2024/03/30 00:51:39;;;;;;;;;99.00;81.67;;;;;10.69;77.84;98965.00;5060168;28;57889;-50
2024/03/30 00:54:05;;;;;;;;;5.00;5.00;;;;;10.69;77.71;98956.34;5060696;28;49737;-51
2024/03/30 00:56:30;;;;;;;;;5.00;3.75;;;;;10.71;78.25;98962.31;5059592;28;73337;-53
2024/03/30 00:58:56;;;;;;;;;2.00;2.00;;;;;10.70;77.93;98958.88;5059451;28;45272;-51
2024/03/30 01:01:22;;;;;;;;;1.25;1.00;;;;;10.70;77.65;98958.03;5057200;28;45205;-49
2024/03/30 01:03:47;;;;;;;;;4.75;1.00;;;;;10.70;77.97;98948.41;5046360;28;45358;-49
2024/03/30 01:06:13;;;;;;;;;1.00;1.00;;;;;10.71;77.62;98944.00;5051216;28;47269;-49
2024/03/30 01:08:38;;;;;;;;;0.25;0.25;;;;;10.69;77.44;98932.78;5040674;28;45328;-52
2024/03/30 01:11:04;;;;;;;;;1.75;1.75;;;;;10.67;77.60;98932.03;5041622;28;69065;-51
2024/03/30 01:13:29;;;;;;;;;2.00;1.00;;;;;10.69;77.69;98923.16;5040317;28;45350;-50
2024/03/30 01:15:55;;;;;;;;;1.00;1.00;;;;;10.68;77.82;98929.34;5040044;28;46890;-50
2024/03/30 01:18:21;;;;;;;;;1.75;1.00;;;;;10.69;77.53;98930.16;5040579;28;45845;-50
2024/03/30 01:20:50;;;;;;;;;2.00;1.75;;;;;10.67;77.50;98927.63;5045387;28;45661;-51
2024/03/30 01:23:19;;;;;;;;;6.75;1.00;;;;;10.62;77.44;98917.44;5052093;28;45312;-51
2024/03/30 01:25:45;;;;;;;;;7.75;3.00;;;;;10.64;77.32;98918.19;5039720;28;46204;-52
2024/03/30 01:28:10;;;;;;;;;4.00;1.00;;;;;10.67;77.31;98919.78;5039773;28;45355;-51
2024/03/30 01:30:36;;;;;;;;;2.50;2.50;;;;;10.69;77.55;98909.25;5041241;28;45345;-52
2024/03/30 01:33:01;;;;;;;;;2.00;1.00;;;;;10.70;77.77;98905.72;5045113;28;45336;-53
2024/03/30 01:35:27;;;;;;;;;1.00;1.00;;;;;10.70;77.47;98895.25;5039621;28;46297;-49
2024/03/30 01:37:52;;;;;;;;;0.00;0.00;;;;;10.69;77.30;98904.00;5060886;28;70868;-51
2024/03/30 01:40:19;;;;;;;;;2.00;0.00;;;;;10.70;77.16;98892.63;5058510;28;68512;-52
2024/03/30 01:42:45;;;;;;;;;2.25;0.00;;;;;10.68;77.04;98890.09;5049598;28;45383;-51
2024/03/30 01:45:10;;;;;;;;;1.25;1.00;;;;;10.65;77.24;98885.03;5052790;28;75133;-50
2024/03/30 01:47:36;;;;;;;;;2.00;1.00;;;;;10.61;77.31;98879.13;5058685;28;72972;-51
2024/03/30 01:50:01;;;;;;;;;0.75;0.75;;;;;10.59;77.28;98881.00;5041238;28;67248;-51
2024/03/30 01:52:28;;;;;;;;;2.25;1.00;;;;;10.55;77.54;98881.25;5038175;28;53509;-51
2024/03/30 01:54:54;;;;;;;;;0.00;0.00;;;;;10.53;77.57;98880.50;5041749;28;46897;-48
2024/03/30 01:57:20;;;;;;;;;2.50;1.00;;;;;10.48;77.42;98879.91;5049783;28;45341;-49
2024/03/30 01:59:47;;;;;;;;;2.50;1.00;;;;;10.42;77.35;98873.25;5053794;28;70178;-49
2024/03/30 02:02:13;;;;;;;;;2.25;1.00;;;;;10.36;77.61;98876.22;5038792;28;45593;-53
2024/03/30 02:04:39;;;;;;;;;1.25;1.00;;;;;10.33;77.77;98872.00;5038193;28;46269;-53
2024/03/30 02:07:05;;;;;;;;;2.00;1.00;;;;;10.32;78.23;98867.69;5055745;28;45246;-53
2024/03/30 02:09:32;;;;;;;;;1.25;1.00;;;;;10.29;78.06;98865.22;5050029;28;45317;-52
2024/03/30 02:11:58;;;;;;;;;0.00;0.00;;;;;10.26;77.51;98865.41;5047289;28;45435;-49
2024/03/30 02:14:23;;;;;;;;;1.00;0.75;;;;;10.22;77.83;98875.19;5057072;28;66359;-49
2024/03/30 02:16:48;;;;;;;;;0.00;0.00;;;;;10.20;77.31;98865.75;5059433;28;47525;-52
2024/03/30 02:19:16;;;;;;;;;0.00;0.00;;;;;10.17;77.11;98866.75;5058428;28;69423;-49
2024/03/30 02:21:41;;;;;;;;;0.50;0.50;;;;;10.14;77.53;98864.28;5058179;28;45382;-50
2024/03/30 02:24:06;;;;;;;;;0.00;0.00;;;;;10.11;80.75;98869.72;5043087;28;75501;-51
2024/03/30 02:26:32;;;;;;;;;0.00;0.00;;;;;10.07;78.02;98868.19;5038371;28;72278;-54
2024/03/30 02:28:57;;;;;;;;;0.00;0.00;;;;;10.05;77.88;98876.09;5046230;28;69368;-53
2024/03/30 02:31:23;;;;;;;;;0.00;0.00;;;;;10.03;78.08;98875.34;5057773;28;45460;-53
2024/03/30 02:33:48;;;;;;;;;2.00;0.00;;;;;10.01;78.05;98877.19;5039225;28;75644;-52
2024/03/30 02:36:15;;;;;;;;;0.00;0.00;;;;;10.00;78.13;98867.66;5038709;28;69170;-53
2024/03/30 02:38:41;;;;;;;;;1.25;0.00;;;;;10.01;78.57;98865.91;5037673;28;54125;-51
2024/03/30 02:41:06;;;;;;;;;1.00;1.00;;;;;10.05;78.68;98873.47;5047255;28;72997;-51
2024/03/30 02:43:32;;;;;;;;;2.00;0.25;;;;;10.05;78.54;98870.03;5041684;28;46227;-51
2024/03/30 02:45:57;;;;;;;;;0.00;0.00;;;;;10.04;78.60;98870.97;5056442;28;71475;-51
2024/03/30 02:48:22;;;;;;;;;4.00;0.25;;;;;10.01;78.74;98865.91;5059365;28;45224;-50
2024/03/30 02:50:48;;;;;;;;;0.00;0.00;;;;;10.00;78.39;98869.44;5073989;27;74529;-51
2024/03/30 02:53:13;;;;;;;;;0.00;0.00;;;;;9.97;78.64;98869.59;5050587;28;45311;-52
2024/03/30 02:55:38;;;;;;;;;0.00;0.00;;;;;9.96;78.54;98871.38;5038106;28;73113;-51
2024/03/30 02:58:04;;;;;;;;;1.00;0.00;;;;;9.95;78.49;98871.47;5052787;28;68065;-49
2024/03/30 03:00:29;;;;;;;;;0.00;0.00;;;;;9.96;78.52;98875.78;5049014;28;73041;-51
2024/03/30 03:02:55;;;;;;;;;0.75;0.00;;;;;9.97;78.51;98867.00;5048422;28;69154;-49
2024/03/30 03:05:20;;;;;;;;;0.00;0.00;;;;;9.97;78.41;98867.00;5060648;28;45351;-53
2024/03/30 03:07:46;;;;;;;;;0.25;0.00;;;;;9.96;78.39;98865.31;5040937;28;49236;-49
2024/03/30 03:10:11;;;;;;;;;0.00;0.00;;;;;9.95;78.21;98871.47;5049807;28;72086;-51
2024/03/30 03:12:36;;;;;;;;;0.00;0.00;;;;;9.97;78.50;98861.75;5043025;28;75615;-52
2024/03/30 03:15:04;;;;;;;;;0.00;0.00;;;;;9.97;78.34;98870.47;5042512;28;45412;-49
2024/03/30 03:17:30;;;;;;;;;0.50;0.00;;;;;9.98;78.51;98859.06;5042185;28;45313;-52
2024/03/30 03:19:55;;;;;;;;;0.00;0.00;;;;;10.00;78.56;98859.00;5049457;28;45282;-53
2024/03/30 03:22:20;;;;;;;;;0.75;0.00;;;;;10.01;78.84;98852.84;5061501;28;53600;-49
2024/03/30 03:24:46;;;;;;;;;0.50;0.00;;;;;9.99;78.03;98854.72;5040900;28;46585;-49
2024/03/30 03:27:11;;;;;;;;;0.00;0.00;;;;;9.99;78.42;98850.31;5044398;28;70314;-50
2024/03/30 03:29:36;;;;;;;;;1.25;0.00;;;;;9.99;78.40;98849.47;5041068;28;71505;-50
2024/03/30 03:32:02;;;;;;;;;0.00;0.00;;;;;10.00;78.17;98851.16;5048366;28;53184;-47
2024/03/30 03:34:27;;;;;;;;;1.00;0.00;;;;;10.00;78.38;98846.75;5041370;28;69369;-51
2024/03/30 03:36:52;;;;;;;;;1.00;0.00;;;;;10.01;78.32;98848.47;5048788;28;45349;-47
2024/03/30 03:39:19;;;;;;;;;0.00;0.00;;;;;10.02;78.31;98854.50;5060823;27;45546;-47
2024/03/30 03:41:44;;;;;;;;;0.50;0.00;;;;;10.02;78.52;98850.16;5059904;28;46959;-48
2024/03/30 03:44:10;;;;;;;;;0.00;0.00;;;;;10.05;78.50;98844.75;5047528;28;71332;-50
2024/03/30 03:46:35;;;;;;;;;0.00;0.00;;;;;10.06;78.59;98840.38;5060651;28;59249;-52
2024/03/30 03:49:00;;;;;;;;;0.50;0.00;;;;;10.07;78.44;98835.06;5052940;28;73612;-50
2024/03/30 03:51:26;;;;;;;;;1.75;0.00;;;;;10.10;78.40;98836.66;5042031;28;73916;-50
2024/03/30 03:53:51;;;;;;;;;0.75;0.25;;;;;10.12;78.29;98837.41;5060758;28;73194;-50
2024/03/30 03:56:16;;;;;;;;;2.25;0.00;;;;;10.12;78.44;98836.56;5060905;28;66820;-51
2024/03/30 03:58:41;;;;;;;;;0.25;0.25;;;;;10.13;78.81;98843.47;5059750;28;64094;-51
2024/03/30 04:01:07;;;;;;;;;0.00;0.00;;;;;10.12;78.59;98840.03;5046239;28;76791;-51
2024/03/30 04:03:32;;;;;;;;;0.00;0.00;;;;;10.11;78.36;98827.03;5027656;28;64118;-53
2024/03/30 04:06:07;;;;;;;;;2.00;1.00;;;;;10.10;78.63;98823.59;5048928;28;45226;-47
2024/03/30 04:08:32;;;;;;;;;1.75;1.75;;;;;10.11;78.54;98824.41;5055942;28;45496;-48
2024/03/30 04:11:02;;;;;;;;;3.75;3.75;;;;;10.09;78.97;98819.28;5048256;28;74504;-54
2024/03/30 04:13:27;;;;;;;;;4.50;3.00;;;;;10.07;78.99;98827.22;5040163;28;45237;-47
2024/03/30 04:15:53;;;;;;;;;7.25;3.75;;;;;10.07;79.33;98823.75;5040169;28;69175;-47
2024/03/30 04:18:18;;;;;;;;;3.25;3.00;;;;;10.05;79.15;98825.59;5041325;28;45310;-49
2024/03/30 04:20:43;;;;;;;;;3.00;2.00;;;;;10.06;79.76;98822.09;5055478;28;74945;-46
2024/03/30 04:23:09;;;;;;;;;2.50;1.00;;;;;10.01;79.73;98819.72;5048274;28;45377;-48
2024/03/30 04:25:34;;;;;;;;;3.00;1.25;;;;;10.05;79.83;98821.22;5059025;28;67324;-47
2024/03/30 04:27:59;;;;;;;;;1.00;1.00;;;;;10.05;79.67;98817.78;5060943;28;45383;-47
2024/03/30 04:30:25;;;;;;;;;2.50;2.00;;;;;10.04;79.75;98813.50;5057391;28;75816;-47
2024/03/30 04:32:50;;;;;;;;;1.00;1.00;;;;;10.01;80.01;98809.25;5040079;28;73390;-47
2024/03/30 04:35:15;;;;;;;;;1.00;1.00;;;;;9.97;80.05;98805.13;5040288;28;68178;-51
2024/03/30 04:37:41;;;;;;;;;2.00;2.00;;;;;9.96;80.13;98800.00;5040107;28;73077;-53
2024/03/30 04:40:06;;;;;;;;;1.25;0.75;;;;;9.94;79.92;98794.03;5041959;28;46250;-54
2024/03/30 04:42:32;;;;;;;;;2.00;2.00;;;;;9.92;80.05;98793.25;5052549;28;45339;-51
2024/03/30 04:44:57;;;;;;;;;3.75;2.00;;;;;9.91;80.49;98792.41;5052303;28;69159;-50
2024/03/30 04:47:23;;;;;;;;;2.00;2.00;;;;;9.92;80.60;98799.31;5073472;27;52737;-48
2024/03/30 04:49:48;;;;;;;;;2.00;2.00;;;;;9.91;80.23;98805.47;5052622;28;75383;-52
2024/03/30 04:52:13;;;;;;;;;2.00;2.00;;;;;9.91;80.59;98804.63;5039829;28;72179;-52
2024/03/30 04:54:38;;;;;;;;;3.00;2.00;;;;;9.88;80.56;98805.66;5039775;28;68380;-50
2024/03/30 04:57:04;;;;;;;;;2.00;1.00;;;;;9.86;80.82;98807.47;5048228;28;53457;-47
2024/03/30 04:59:31;;;;;;;;;2.50;1.00;;;;;9.84;80.72;98819.78;5057427;28;70762;-51
2024/03/30 05:01:56;;;;;;;;;2.25;2.00;;;;;9.84;81.00;98822.41;5047488;28;45757;-47
2024/03/30 05:04:21;;;;;;;;;1.75;1.00;;;;;9.81;80.42;98831.28;5059862;28;65999;-50
2024/03/30 05:06:46;;;;;;;;;2.00;2.00;;;;;9.78;80.71;98838.44;5045766;28;71640;-50
2024/03/30 05:09:12;;;;;;;;;2.50;1.75;;;;;9.78;81.06;98843.66;5048365;28;46942;-51
2024/03/30 05:11:37;;;;;;;;;2.00;1.00;;;;;9.77;81.13;98847.19;5041865;28;61586;-50
2024/03/30 05:14:02;;;;;;;;;3.00;3.00;;;;;9.80;81.46;98849.63;5039276;28;70292;-48
2024/03/30 05:16:29;;;;;;;;;4.50;4.50;;;;;9.82;81.04;98843.38;5039435;28;73015;-51
2024/03/30 05:18:54;;;;;;;;;3.00;2.25;;;;;9.85;81.37;98850.22;5047031;28;46176;-49
2024/03/30 05:21:20;;;;;;;;;6.75;5.00;;;;;9.91;81.63;98854.28;5059303;28;71889;-53
2024/03/30 05:23:45;;;;;;;;;4.00;4.00;;;;;9.92;81.62;98866.44;5057152;28;45270;-51
2024/03/30 05:26:10;;;;;;;;;6.00;4.00;;;;;9.94;81.22;98869.78;5053091;28;45363;-50
2024/03/30 05:28:37;;;;;;;;;6.00;2.75;;;;;9.92;81.06;98869.03;5038788;28;74370;-51
2024/03/30 05:31:04;;;;;;;;;7.00;4.00;;;;;9.96;81.20;98862.72;5040084;28;48216;-50
2024/03/30 05:33:30;;;;;;;;;6.25;2.25;;;;;9.96;81.05;98865.31;5046003;28;45349;-49
2024/03/30 05:35:55;;;;;;;;;4.25;4.25;;;;;9.96;81.15;98873.16;5047479;28;45371;-51
2024/03/30 05:38:21;;;;;;;;;5.00;4.75;;;;;9.96;80.95;98881.84;5059993;28;46522;-49
2024/03/30 05:40:47;;;;;;;;;7.00;4.00;;;;;9.99;81.44;98888.69;5059622;28;45325;-50
2024/03/30 05:43:12;;;;;;;;;5.50;4.00;;;;;10.01;81.63;98892.03;5045900;28;45272;-51
2024/03/30 05:45:40;;;;;;;;;5.00;3.00;;;;;10.03;81.60;98892.81;5057161;28;66091;-49
2024/03/30 05:48:06;;;;;;;;;3.00;3.00;;;;;10.04;81.62;98891.88;5041985;28;46216;-49
2024/03/30 05:50:32;;;;;;;;;5.75;1.50;;;;;10.04;81.43;98899.72;5053052;28;45249;-49
2024/03/30 05:52:57;;;;;;;;;1.00;1.00;;;;;10.03;81.50;98905.88;5047142;28;45605;-49
2024/03/30 05:55:23;;;;;;;;;1.75;1.00;;;;;9.98;81.16;98908.72;5059984;28;45230;-51
2024/03/30 05:57:49;;;;;;;;;1.50;1.00;;;;;9.96;81.46;98915.81;5058684;28;49577;-52
2024/03/30 06:00:15;;;;;;;;;2.00;1.00;;;;;9.95;81.15;98916.75;5051984;28;45447;-49
2024/03/30 06:02:42;;;;;;;;;2.50;2.00;;;;;9.93;81.12;98926.41;5039977;28;53787;-52
2024/03/30 06:05:07;;;;;;;;;3.25;1.00;;;;;9.94;81.01;98937.72;5039798;28;45466;-52
2024/03/30 06:07:33;;;;;;;;;3.00;1.25;;;;;9.92;81.28;98931.75;5057632;28;45415;-49
2024/03/30 06:10:00;;;;;;;;;3.00;2.00;;;;;9.93;81.55;98936.88;5054871;28;45352;-50
2024/03/30 06:12:25;;;;;;;;;2.00;1.00;;;;;9.93;81.54;98928.19;5045053;28;45315;-52
2024/03/30 06:14:51;;;;;;;;;3.00;2.00;;;;;9.93;81.34;98931.63;5039190;28;54983;-49
2024/03/30 06:17:16;;;;;;;;;2.75;1.00;;;;;9.95;81.79;98923.72;5039226;28;46935;-49
2024/03/30 06:19:41;;;;;;;;;3.00;2.75;;;;;9.98;81.45;98916.56;5037223;28;72841;-50
2024/03/30 06:22:07;;;;;;;;;1.00;1.00;;;;;10.01;81.71;98916.41;5048716;27;45330;-53
2024/03/30 06:24:32;;;;;;;;;1.00;1.00;;;;;10.04;81.74;98928.47;5058119;28;45293;-49
2024/03/30 06:26:57;;;;;;;;;4.25;2.00;;;;;10.05;81.42;98933.59;5051680;28;66114;-52
2024/03/30 06:29:23;;;;;;;;;4.75;1.00;;;;;10.06;81.31;98935.28;5059381;28;48516;-53
2024/03/30 06:31:48;;;;;;;;;4.75;3.00;;;;;10.08;81.48;98927.38;5057907;28;68283;-53
2024/03/30 06:34:13;;;;;;;;;2.00;1.50;;;;;10.09;81.55;98929.03;5054012;28;71635;-52
2024/03/30 06:36:39;;;;;;;;;1.50;1.00;;;;;10.13;81.84;98932.34;5038878;28;74483;-51
2024/03/30 06:39:04;;;;;;;;;1.00;1.00;;;;;10.12;81.39;98930.66;5042204;28;68015;-49
2024/03/30 06:44:14;;;;;;;;;4.00;2.00;;;;;10.15;81.70;98940.97;5052076;28;45346;-50
2024/03/30 06:46:40;;;;;;;;;3.00;2.00;;;;;10.17;81.67;98941.72;5061290;28;45290;-50
2024/03/30 06:49:05;;;;;;;;;2.50;1.00;;;;;10.18;81.48;98944.25;5053354;28;45165;-50
2024/03/30 06:51:31;;;;;;;;;4.50;1.00;;;;;10.18;81.25;98928.56;5043155;28;45408;-48
2024/03/30 06:53:56;;;;;;;;;1.00;0.25;;;;;10.21;80.81;98906.63;5043595;28;45462;-50
2024/03/30 06:56:22;;;;;;;;;0.25;0.25;;;;;10.25;80.91;98885.47;5042388;28;73112;-50
2024/03/30 06:58:48;;;;;;;;;3.00;1.00;;;;;10.26;80.84;98900.22;5061036;28;46202;-52
2024/03/30 07:01:13;;;;;;;;;0.25;0.25;;;;;10.31;80.82;98915.69;5055749;28;58286;-47
2024/03/30 07:03:39;;;;;;;;;1.00;1.00;;;;;10.35;80.70;98934.66;5062569;28;45595;-49
2024/03/30 07:06:04;;;;;;;;;1.00;1.00;;;;;10.38;80.29;98940.56;5054310;28;45314;-46
2024/03/30 07:08:29;;;;;;;;;1.00;1.00;;;;;10.38;80.23;98951.03;5045637;28;45348;-49
2024/03/30 07:10:55;;;;;;;;;1.00;1.00;;;;;10.40;80.36;98969.25;5047820;28;68126;-50
2024/03/30 07:13:20;;;;;;;;;3.00;1.00;;;;;10.41;80.37;98973.53;5041642;28;63789;-49
2024/03/30 07:15:47;;;;;;;;;3.00;1.00;;;;;10.42;80.65;98996.16;5040939;28;75806;-52
2024/03/30 07:18:12;;;;;;;;;1.50;1.00;;;;;10.44;80.55;98995.13;5052040;28;45305;-49
2024/03/30 07:20:38;;;;;;;;;2.00;1.25;;;;;10.44;80.51;98997.75;5046991;28;45336;-53
2024/03/30 07:23:03;;;;;;;;;3.00;1.25;;;;;10.47;80.76;99002.00;5047683;28;61545;-50
2024/03/30 07:25:29;;;;;;;;;4.00;3.00;;;;;10.48;nan;98985.34;5060270;28;54866;-51
2024/03/30 07:27:54;;;;;;;;;2.00;1.00;;;;;10.50;80.00;98985.28;5041909;28;45262;-49
2024/03/30 07:30:19;;;;;;;;;3.25;2.00;;;;;10.50;80.18;98987.88;5041158;28;55871;-53
2024/03/30 07:32:44;;;;;;;;;1.00;1.00;;;;;10.53;80.66;98992.97;5048222;28;47568;-48
2024/03/30 07:35:10;;;;;;;;;3.00;2.00;;;;;10.57;80.69;98986.63;5049832;28;75517;-52
2024/03/30 07:37:37;;;;;;;;;1.25;1.00;;;;;10.60;80.03;98976.84;5060512;28;52117;-46
2024/03/30 07:40:02;;;;;;;;;1.25;1.00;;;;;10.62;80.28;98964.53;5061456;28;45158;-47
2024/03/30 07:42:28;;;;;;;;;2.00;2.00;;;;;10.68;80.52;98958.13;5060763;28;45213;-51
2024/03/30 07:44:53;;;;;;;;;1.00;1.00;;;;;10.78;80.16;98947.97;5057841;28;67190;-51
2024/03/30 07:47:18;;;;;;;;;1.00;1.00;;;;;10.90;79.97;98928.94;5058216;28;73174;-51
2024/03/30 07:49:44;;;;;;;;;2.00;1.00;;;;;11.04;79.42;98937.78;5046488;28;54160;-50
2024/03/30 07:52:11;;;;;;;;;1.00;1.00;;;;;11.11;78.60;98960.91;5062658;28;45245;-51
2024/03/30 07:54:36;;;;;;;;;0.00;0.00;;;;;11.17;78.42;98978.88;5056775;28;46837;-52
2024/03/30 07:57:01;;;;;;;;;0.00;0.00;;;;;11.31;78.08;98987.69;5060634;28;45411;-52
2024/03/30 07:59:27;;;;;;;;;1.00;1.00;;;;;11.36;78.35;98973.41;5058583;28;69292;-51
2024/03/30 08:01:53;;;;;;;;;2.00;1.00;;;;;11.42;77.85;98959.13;5041574;28;45304;-50
2024/03/30 08:04:19;;;;;;;;;0.00;0.00;;;;;11.48;77.05;98971.84;5041328;28;46195;-51
2024/03/30 08:06:49;;;;;;;;;0.00;0.00;;;;;11.55;76.99;98967.09;5055177;28;45245;-48
2024/03/30 08:09:23;;;;;;;;;1.00;1.00;;;;;11.59;76.79;98976.44;5054262;28;45260;-50
2024/03/30 08:11:49;;;;;;;;;1.00;1.00;;;;;11.62;76.14;98964.94;5042690;28;45373;-50
2024/03/30 08:14:16;;;;;;;;;0.00;0.00;;;;;11.65;76.22;98983.09;5040253;28;75586;-51
2024/03/30 08:16:43;;;;;;;;;1.00;0.00;;;;;11.65;75.80;99007.53;5044396;28;45388;-50
2024/03/30 08:19:10;;;;;;;;;3.50;1.00;;;;;11.65;75.72;99006.66;5058452;28;45190;-47
2024/03/30 08:21:36;;;;;;;;;1.00;1.00;;;;;11.61;75.47;99000.75;5061164;28;45281;-52
2024/03/30 08:24:01;;;;;;;;;3.00;1.00;;;;;11.60;75.66;99006.97;5046684;28;46221;-53
2024/03/30 08:26:26;;;;;;;;;1.50;1.00;;;;;11.59;75.44;99016.56;5050752;28;56606;-53
2024/03/30 08:28:51;;;;;;;;;1.00;1.00;;;;;11.55;75.35;99022.94;5043253;28;59875;-49
2024/03/30 08:31:17;;;;;;;;;0.00;0.00;;;;;11.56;75.03;99022.00;5042254;28;72135;-49
2024/03/30 08:33:43;;;;;;;;;1.00;0.25;;;;;11.54;74.92;99018.66;5043230;28;67984;-52
2024/03/30 08:36:09;;;;;;;;;0.00;0.00;;;;;11.55;75.00;99038.66;5041254;28;45571;-52
2024/03/30 08:38:34;;;;;;;;;3.00;1.00;;;;;11.53;75.38;99044.94;5039604;28;45315;-48
2024/03/30 08:40:59;;;;;;;;;2.00;0.25;;;;;11.51;74.96;99046.78;5049743;28;73175;-49
2024/03/30 08:43:26;;;;;;;;;0.50;0.00;;;;;11.46;75.05;99057.53;5053815;28;74576;-49
2024/03/30 08:45:52;;;;;;;;;0.00;0.00;;;;;11.41;75.14;99064.81;5058914;28;45747;-47
2024/03/30 08:48:18;;;;;;;;;3.00;0.00;;;;;11.36;75.08;99066.84;5060989;28;45326;-48
2024/03/30 08:50:43;;;;;;;;;0.00;0.00;;;;;11.34;75.06;99069.53;5060303;27;45332;-49
2024/03/30 08:53:09;;;;;;;;;0.00;0.00;;;;;11.35;75.08;99079.09;5044253;28;46289;-49
2024/03/30 08:55:35;;;;;;;;;0.00;0.00;;;;;11.31;74.96;99080.19;5040952;28;45320;-47
2024/03/30 08:58:00;;;;;;;;;0.00;0.00;;;;;11.27;74.98;99090.94;5053983;28;45384;-48
2024/03/30 09:00:26;;;;;;;;;1.00;0.00;;;;;11.22;75.15;99093.81;5060388;28;45315;-49
2024/03/30 09:02:54;;;;;;;;;1.00;0.00;;;;;11.19;75.56;99100.06;5059703;28;74392;-50
2024/03/30 09:05:19;;;;;;;;;0.75;0.00;;;;;11.17;75.43;99099.31;5058795;28;46032;-48
2024/03/30 09:07:44;;;;;;;;;0.00;0.00;;;;;11.15;75.27;99101.16;5040668;28;45771;-49
2024/03/30 09:10:10;;;;;;;;;0.00;0.00;;;;;11.17;75.42;99090.59;5046532;28;68430;-52
2024/03/30 09:12:35;;;;;;;;;1.00;0.00;;;;;11.21;75.40;99105.22;5041827;28;57557;-52
2024/03/30 09:15:00;;;;;;;;;1.00;0.00;;;;;11.23;75.70;99108.59;5041534;28;73325;-51
2024/03/30 09:17:26;;;;;;;;;0.00;0.00;;;;;11.25;75.73;99111.13;5049391;28;67203;-52
2024/03/30 09:19:51;;;;;;;;;1.00;0.00;;;;;11.23;75.56;99121.69;5060449;28;48268;-53
2024/03/30 09:22:16;;;;;;;;;0.50;0.00;;;;;11.20;75.66;99127.94;5059156;28;74315;-50
2024/03/30 09:24:43;;;;;;;;;1.00;0.00;;;;;11.17;75.84;99128.13;5022565;28;45381;-52
2024/03/30 09:27:08;;;;;;;;;0.00;0.00;;;;;11.14;75.89;99123.03;5040155;28;45319;-52
2024/03/30 09:29:33;;;;;;;;;0.25;0.25;;;;;11.17;76.00;99129.88;5040263;28;45270;-54
2024/03/30 09:31:59;;;;;;;;;1.00;1.00;;;;;11.20;75.72;99132.31;5045965;28;74589;-49
2024/03/30 09:34:24;;;;;;;;;0.00;0.00;;;;;11.14;75.71;99128.28;5051260;28;45391;-49
2024/03/30 09:36:50;;;;;;;;;1.00;0.00;;;;;11.15;75.77;99131.75;5059433;28;68313;-52
2024/03/30 09:39:15;;;;;;;;;0.00;0.00;;;;;11.14;75.87;99135.31;5049519;28;67666;-49
2024/03/30 09:41:54;;;;;;;;;0.00;0.00;;;;;11.14;76.07;99136.13;5052947;28;45381;-50
2024/03/30 09:44:20;;;;;;;;;0.75;0.75;;;;;11.18;76.00;99147.28;5048268;28;45746;-48
2024/03/30 09:46:46;;;;;;;;;1.00;1.00;;;;;11.23;76.24;99145.25;5059096;28;67007;-52
2024/03/30 09:49:14;;;;;;;;;2.75;1.00;;;;;11.30;76.05;99153.63;5058697;28;45542;-50
2024/03/30 09:51:42;;;;;;;;;1.00;0.00;;;;;11.31;76.25;99150.91;5059688;28;45225;-50
2024/03/30 09:54:08;;;;;;;;;1.00;1.00;;;;;11.32;76.21;99146.53;5059107;28;45761;-52
2024/03/30 09:56:34;;;;;;;;;0.75;0.75;;;;;11.34;75.67;99152.53;5045932;28;60250;-51
2024/03/30 09:59:02;;;;;;;;;0.00;0.00;;;;;11.40;76.44;99145.16;5058945;28;45387;-49
2024/03/30 10:01:27;;;;;;;;;0.75;0.75;;;;;11.53;76.38;99141.88;5041061;28;46417;-48
2024/03/30 10:03:52;;;;;;;;;0.00;0.00;;;;;11.66;75.99;99152.47;5039073;28;71830;-48
2024/03/30 10:06:22;;;;;;;;;1.50;0.00;;;;;11.77;75.79;99148.31;5048630;28;45356;-47
2024/03/30 10:08:48;;;;;;;;;1.25;1.00;;;;;11.92;75.58;99154.47;5054440;28;45426;-48
2024/03/30 10:11:17;;;;;;;;;0.75;0.75;;;;;12.00;75.51;99150.56;5046116;28;74663;-49
2024/03/30 10:13:54;;;;;;;;;1.00;0.00;;;;;12.09;75.57;99152.66;5045746;28;73420;-49
2024/03/30 10:16:19;;;;;;;;;1.75;0.25;;;;;12.18;75.79;99153.88;5039581;28;45190;-50
2024/03/30 10:18:49;;;;;;;;;1.00;1.00;;;;;12.26;75.24;99152.50;5039728;28;45227;-50
2024/03/30 10:21:15;;;;;;;;;1.50;1.00;;;;;12.28;74.54;99144.53;5045957;28;47287;-53
2024/03/30 10:23:40;;;;;;;;;0.00;0.00;;;;;12.26;74.08;99142.00;5046481;28;50157;-51
2024/03/30 10:26:12;;;;;;;;;1.00;0.00;;;;;12.28;74.13;99140.13;5055405;28;70111;-50
2024/03/30 10:28:37;;;;;;;;;1.00;1.00;;;;;12.33;74.08;99140.69;5059549;28;45379;-53
2024/03/30 10:31:03;;;;;;;;;1.75;0.25;;;;;12.44;73.76;99147.09;5058272;28;75671;-52
2024/03/30 10:33:28;;;;;;;;;1.25;1.00;;;;;12.52;73.67;99134.38;5044588;28;67628;-48
2024/03/30 10:35:55;;;;;;;;;1.75;0.00;;;;;12.60;72.98;99139.13;5039222;28;57325;-52
2024/03/30 10:38:21;;;;;;;;;1.25;1.00;;;;;12.70;73.38;99142.88;5048991;28;45551;-53
2024/03/30 10:40:47;;;;;;;;;1.25;1.00;;;;;12.81;72.52;99137.81;5046046;28;45594;-49
2024/03/30 10:43:13;;;;;;;;;0.75;0.75;;;;;12.96;72.46;99135.16;5043772;28;73084;-48
2024/03/30 10:45:39;;;;;;;;;0.00;0.00;;;;;13.10;72.25;99132.50;5057160;28;45239;-50
2024/03/30 10:48:04;;;;;;;;;0.75;0.50;;;;;13.20;71.36;99136.25;5058826;27;45583;-52
2024/03/30 10:50:30;;;;;;;;;72.75;53.75;;;;;13.20;70.94;99133.63;5054451;28;46393;-52
2024/03/30 10:52:55;;;;;;;;;1.25;1.25;;;;;13.25;70.97;99136.81;5039203;28;45237;-47
2024/03/30 10:55:21;;;;;;;;;1.25;1.00;;;;;13.29;69.83;99142.69;5039274;28;45349;-48
2024/03/30 10:57:47;;;;;;;;;1.50;1.50;;;;;13.29;70.32;99143.53;5052162;28;45710;-49
2024/03/30 11:00:13;;;;;;;;;4.25;1.00;;;;;13.30;70.02;99137.34;5050517;28;55483;-50
2024/03/30 11:02:40;;;;;;;;;1.00;1.00;;;;;13.40;70.48;99147.28;5037471;28;45285;-49
2024/03/30 11:05:06;;;;;;;;;2.75;1.00;;;;;13.46;70.01;99149.53;5054642;27;45580;-51
2024/03/30 11:07:36;;;;;;;;;0.75;0.75;;;;;13.51;69.54;99150.09;5052276;28;45489;-50
2024/03/30 11:10:03;;;;;;;;;3.50;2.00;;;;;13.59;69.54;99144.34;5059011;27;45299;-52
2024/03/30 11:12:29;;;;;;;;;3.00;3.00;;;;;13.70;69.29;99141.00;5056057;28;45317;-48
2024/03/30 11:14:55;;;;;;;;;2.25;0.00;;;;;13.82;69.05;99137.56;5037349;28;62062;-50
2024/03/30 11:17:23;;;;;;;;;3.50;3.00;;;;;13.92;68.64;99133.38;5057550;28;45324;-53
2024/03/30 11:20:17;;;;;;;;;1.00;1.00;;;;;14.03;68.51;99132.66;5058872;28;46184;-47
2024/03/30 11:22:45;;;;;;;;;3.00;2.00;;;;;14.17;68.24;99129.13;5055827;28;45323;-49
2024/03/30 11:25:13;;;;;;;;;1.00;1.00;;;;;14.25;67.75;99126.78;5042309;28;45303;-49
2024/03/30 11:27:47;;;;;;;;;6.00;3.00;;;;;14.21;67.17;99135.84;5041942;28;45292;-52
2024/03/30 11:30:31;;;;;;;;;1.00;1.00;;;;;14.18;66.63;99147.44;5040748;28;45226;-48